createdAt,value
2022-11-03T00:02:09.171Z,10.22
2022-11-03T00:04:37.216Z,10.23
2022-11-03T00:07:05.291Z,10.25
2022-11-03T00:09:33.362Z,10.24
2022-11-03T00:12:01.969Z,10.26
2022-11-03T00:14:29.906Z,10.30
2022-11-03T00:16:57.733Z,10.35
2022-11-03T00:19:25.800Z,10.40
2022-11-03T00:21:53.862Z,10.40
2022-11-03T00:24:21.760Z,10.33
2022-11-03T00:26:50.266Z,10.29
2022-11-03T00:29:18.179Z,10.25
2022-11-03T00:31:46.076Z,10.24
2022-11-03T00:34:13.908Z,10.25
2022-11-03T00:36:45.427Z,10.23
2022-11-03T00:39:13.611Z,10.20
2022-11-03T00:41:41.638Z,10.20
2022-11-03T00:44:10.817Z,10.22
2022-11-03T00:46:38.923Z,10.25
2022-11-03T00:49:06.940Z,10.28
2022-11-03T00:51:37.794Z,10.31
2022-11-03T00:54:07.469Z,10.35
2022-11-03T00:56:40.922Z,10.38
2022-11-03T00:59:10.275Z,10.41
2022-11-03T01:01:47.217Z,10.35
2022-11-03T01:04:36.419Z,10.29
2022-11-03T01:07:06.106Z,10.20
2022-11-03T01:09:40.001Z,10.17
2022-11-03T01:12:17.640Z,10.18
2022-11-03T01:14:48.871Z,10.18
2022-11-03T01:17:22.424Z,10.19
2022-11-03T01:19:50.920Z,10.19
2022-11-03T01:22:19.464Z,10.19
2022-11-03T01:24:47.806Z,10.21
2022-11-03T01:27:18.552Z,10.22
2022-11-03T01:29:46.923Z,10.24
2022-11-03T01:32:15.195Z,10.25
2022-11-03T01:34:43.070Z,10.27
2022-11-03T01:37:10.974Z,10.28
2022-11-03T01:39:38.925Z,10.27
2022-11-03T01:42:07.015Z,10.28
2022-11-03T01:44:40.208Z,10.28
2022-11-03T01:47:22.990Z,10.30
2022-11-03T01:50:05.074Z,10.30
2022-11-03T01:52:42.354Z,10.32
2022-11-03T01:55:17.454Z,10.32
2022-11-03T01:57:51.852Z,10.31
2022-11-03T02:00:19.939Z,10.29
2022-11-03T02:02:48.504Z,10.26
2022-11-03T02:05:20.799Z,10.25
2022-11-03T02:07:56.165Z,10.26
2022-11-03T02:10:25.448Z,10.25
2022-11-03T02:12:53.820Z,10.19
2022-11-03T02:15:23.226Z,10.17
2022-11-03T02:17:54.525Z,10.22
2022-11-03T02:20:28.998Z,10.25
2022-11-03T02:23:22.913Z,10.28
2022-11-03T02:26:00.975Z,10.32
2022-11-03T02:28:32.657Z,10.34
2022-11-03T02:31:23.171Z,10.35
2022-11-03T02:33:59.960Z,10.38
2022-11-03T02:36:42.005Z,10.41
2022-11-03T02:39:16.556Z,10.44
2022-11-03T02:41:47.146Z,10.45
2022-11-03T02:44:18.365Z,10.47
2022-11-03T02:46:52.196Z,10.47
2022-11-03T02:49:20.234Z,10.47
2022-11-03T02:51:48.134Z,10.47
2022-11-03T02:54:29.497Z,10.44
2022-11-03T02:57:13.648Z,10.35
2022-11-03T02:59:50.159Z,10.27
2022-11-03T03:02:24.567Z,10.22
2022-11-03T03:04:57.813Z,10.21
2022-11-03T03:07:31.161Z,10.25
2022-11-03T03:10:11.830Z,10.29
2022-11-03T03:12:47.014Z,10.33
2022-11-03T03:15:17.537Z,10.37
2022-11-03T03:17:53.160Z,10.42
2022-11-03T03:20:28.164Z,10.45
2022-11-03T03:23:17.436Z,10.48
2022-11-03T03:25:51.870Z,10.51
2022-11-03T03:28:25.772Z,10.50
2022-11-03T03:30:57.205Z,10.45
2022-11-03T03:35:59.863Z,10.36
2022-11-03T03:38:34.379Z,10.29
2022-11-03T03:41:09.536Z,10.23
2022-11-03T03:43:40.823Z,10.19
2022-11-03T03:46:12.319Z,10.19
2022-11-03T03:48:40.286Z,10.19
2022-11-03T03:51:10.541Z,10.18
2022-11-03T03:53:38.576Z,10.18
2022-11-03T03:56:07.063Z,10.18
2022-11-03T03:58:34.954Z,10.18
2022-11-03T04:01:02.975Z,10.18
2022-11-03T04:03:30.923Z,10.15
2022-11-03T04:05:58.792Z,10.17
2022-11-03T04:08:26.813Z,10.21
2022-11-03T04:11:13.437Z,10.21
2022-11-03T04:14:00.219Z,10.21
2022-11-03T04:16:46.876Z,10.18
2022-11-03T04:19:33.356Z,10.13
2022-11-03T04:22:16.805Z,10.12
2022-11-03T04:24:46.065Z,10.15
2022-11-03T04:27:20.035Z,10.18
2022-11-03T04:29:48.167Z,10.19
2022-11-03T04:32:19.349Z,10.22
2022-11-03T04:34:48.745Z,10.25
2022-11-03T04:37:17.462Z,10.24
2022-11-03T04:39:45.700Z,10.23
2022-11-03T04:42:19.822Z,10.25
2022-11-03T04:44:49.375Z,10.24
2022-11-03T04:47:18.535Z,10.11
2022-11-03T04:49:48.455Z,10.02
2022-11-03T04:52:21.512Z,9.93
2022-11-03T04:54:52.514Z,9.95
2022-11-03T04:57:20.621Z,9.96
2022-11-03T04:59:53.159Z,9.91
2022-11-03T05:02:22.077Z,9.90
2022-11-03T05:04:50.305Z,9.87
2022-11-03T05:07:36.521Z,9.88
2022-11-03T05:10:06.851Z,9.88
2022-11-03T05:12:35.021Z,9.87
2022-11-03T05:15:13.820Z,9.92
2022-11-03T05:17:41.843Z,9.97
2022-11-03T05:20:34.681Z,9.94
2022-11-03T05:23:06.201Z,9.94
2022-11-03T05:25:41.602Z,9.97
2022-11-03T05:28:27.005Z,9.97
2022-11-03T05:30:55.938Z,10.00
2022-11-03T05:33:31.416Z,10.02
2022-11-03T05:36:03.504Z,10.02
2022-11-03T05:38:33.409Z,9.98
2022-11-03T05:41:01.857Z,9.92
2022-11-03T05:43:30.154Z,9.93
2022-11-03T05:46:02.403Z,9.90
2022-11-03T05:48:37.546Z,9.93
2022-11-03T05:51:38.303Z,10.01
2022-11-03T05:54:19.476Z,10.12
2022-11-03T05:56:48.360Z,10.23
2022-11-03T05:59:23.132Z,10.31
2022-11-03T06:01:53.254Z,10.38
2022-11-03T06:04:27.554Z,10.42
2022-11-03T06:07:19.373Z,10.45
2022-11-03T06:09:47.316Z,10.48
2022-11-03T06:12:19.400Z,10.49
2022-11-03T06:14:48.123Z,10.51
2022-11-03T06:17:25.906Z,10.55
2022-11-03T06:19:57.931Z,10.59
2022-11-03T06:22:29.379Z,10.64
2022-11-03T06:25:12.588Z,10.67
2022-11-03T06:27:40.417Z,10.73
2022-11-03T06:30:24.030Z,10.77
2022-11-03T06:32:52.563Z,10.79
2022-11-03T06:35:21.163Z,10.83
2022-11-03T06:37:50.254Z,10.89
2022-11-03T06:40:18.300Z,10.95
2022-11-03T06:42:46.273Z,11.00
2022-11-03T06:45:25.368Z,11.03
2022-11-03T06:47:54.193Z,11.08
2022-11-03T06:50:31.635Z,11.11
2022-11-03T06:53:04.408Z,11.14
2022-11-03T06:55:40.609Z,11.20
2022-11-03T06:58:17.595Z,11.23
2022-11-03T07:00:50.893Z,11.26
2022-11-03T07:03:30.818Z,11.29
2022-11-03T07:06:02.035Z,11.33
2022-11-03T07:08:34.929Z,11.34
2022-11-03T07:11:07.179Z,11.36
2022-11-03T07:13:35.708Z,11.44
2022-11-03T07:16:03.998Z,11.53
2022-11-03T07:18:39.009Z,11.63
2022-11-03T07:21:33.540Z,11.73
2022-11-03T07:24:11.196Z,11.82
2022-11-03T07:26:39.744Z,11.79
2022-11-03T07:29:22.216Z,11.65
2022-11-03T07:31:52.454Z,11.61
2022-11-03T07:34:25.445Z,11.63
2022-11-03T07:36:56.325Z,11.64
2022-11-03T07:39:28.801Z,11.63
2022-11-03T07:41:57.314Z,11.64
2022-11-03T07:44:29.764Z,11.63
2022-11-03T07:46:58.186Z,11.52
2022-11-03T07:49:28.370Z,11.56
2022-11-03T07:51:59.340Z,11.64
2022-11-03T07:54:33.811Z,11.63
2022-11-03T07:57:27.174Z,11.63
2022-11-03T08:00:08.858Z,11.52
2022-11-03T08:02:52.272Z,11.47
2022-11-03T08:05:20.646Z,11.49
2022-11-03T08:07:48.896Z,11.53
2022-11-03T08:10:17.330Z,11.58
2022-11-03T08:12:45.568Z,11.57
2022-11-03T08:15:13.958Z,11.59
2022-11-03T08:17:42.158Z,11.62
2022-11-03T08:20:11.524Z,11.64
2022-11-03T08:22:41.599Z,11.58
2022-11-03T08:25:14.170Z,11.58
2022-11-03T08:27:42.255Z,11.53
2022-11-03T08:30:14.157Z,11.54
2022-11-03T08:32:47.968Z,11.48
2022-11-03T08:35:17.264Z,11.42
2022-11-03T08:37:45.839Z,11.46
2022-11-03T08:40:14.267Z,11.38
2022-11-03T08:42:42.448Z,11.40
2022-11-03T08:45:11.560Z,11.42
2022-11-03T08:47:40.063Z,11.48
2022-11-03T08:50:08.321Z,11.55
2022-11-03T08:52:36.669Z,11.61
2022-11-03T08:55:05.265Z,11.67
2022-11-03T08:57:33.226Z,11.73
2022-11-03T09:00:01.374Z,11.74
2022-11-03T09:02:29.546Z,11.78
2022-11-03T09:04:57.874Z,11.82
2022-11-03T09:12:45.479Z,11.87
2022-11-03T09:15:14.841Z,11.85
2022-11-03T09:17:45.651Z,11.83
2022-11-03T09:20:14.401Z,11.90
2022-11-03T09:22:42.680Z,11.85
2022-11-03T09:25:10.986Z,11.89
2022-11-03T09:27:39.270Z,11.93
2022-11-03T09:30:15.434Z,12.01
2022-11-03T09:32:44.302Z,12.08
2022-11-03T09:35:14.786Z,12.14
2022-11-03T09:37:43.750Z,12.21
2022-11-03T09:40:15.074Z,12.29
2022-11-03T09:42:43.668Z,12.36
2022-11-03T09:45:12.099Z,12.38
2022-11-03T09:47:42.634Z,12.37
2022-11-03T09:50:19.453Z,12.42
2022-11-03T09:52:51.521Z,12.48
2022-11-03T09:55:25.008Z,12.53
2022-11-03T09:57:57.693Z,12.54
2022-11-03T10:00:27.429Z,12.52
2022-11-03T10:02:56.117Z,12.54
2022-11-03T10:05:27.122Z,12.58
2022-11-03T10:08:03.514Z,12.62
2022-11-03T10:10:35.355Z,12.63
2022-11-03T10:13:09.462Z,12.62
2022-11-03T10:15:40.085Z,12.68
2022-11-03T10:18:10.362Z,12.74
2022-11-03T10:20:38.607Z,12.76
2022-11-03T10:23:09.435Z,12.76
2022-11-03T10:25:40.627Z,12.77
2022-11-03T10:28:18.339Z,12.74
2022-11-03T10:31:13.715Z,12.68
2022-11-03T10:33:55.305Z,12.65
2022-11-03T10:36:28.624Z,12.58
2022-11-03T10:38:57.849Z,12.53
2022-11-03T10:41:29.927Z,12.50
2022-11-03T10:44:19.499Z,12.47
2022-11-03T10:47:07.092Z,12.50
2022-11-03T10:49:39.206Z,12.60
2022-11-03T10:52:21.282Z,12.65
2022-11-03T10:54:55.278Z,12.66
2022-11-03T10:57:24.995Z,12.69
2022-11-03T10:59:54.607Z,12.75
2022-11-03T11:02:28.373Z,12.79
2022-11-03T11:05:02.141Z,12.81
2022-11-03T11:07:38.652Z,12.82
2022-11-03T11:10:13.236Z,12.88
2022-11-03T11:13:07.459Z,12.91
2022-11-03T11:15:43.685Z,12.91
2022-11-03T11:18:32.074Z,12.95
2022-11-03T11:21:22.228Z,13.00
2022-11-03T11:23:52.894Z,13.09
2022-11-03T11:26:32.297Z,13.18
2022-11-03T11:29:09.963Z,13.29
2022-11-03T11:31:39.477Z,13.36
2022-11-03T11:34:20.264Z,13.31
2022-11-03T11:36:57.484Z,13.27
2022-11-03T11:39:28.915Z,13.21
2022-11-03T11:42:17.920Z,13.16
2022-11-03T11:44:57.123Z,13.19
2022-11-03T11:47:29.231Z,13.22
2022-11-03T11:50:07.075Z,13.28
2022-11-03T11:52:43.436Z,13.29
2022-11-03T11:55:18.378Z,13.26
2022-11-03T11:57:47.040Z,13.25
2022-11-03T12:00:19.599Z,13.31
2022-11-03T12:02:49.096Z,13.39
2022-11-03T12:05:30.798Z,13.46
2022-11-03T12:07:59.055Z,13.49
2022-11-03T12:10:31.666Z,13.51
2022-11-03T12:13:01.830Z,13.57
2022-11-03T12:15:50.953Z,13.59
2022-11-03T12:18:47.663Z,13.47
2022-11-03T12:21:49.714Z,13.35
2022-11-03T12:24:36.505Z,13.30
2022-11-03T12:27:26.426Z,13.28
2022-11-03T12:30:00.965Z,13.29
2022-11-03T12:32:33.849Z,13.31
2022-11-03T12:35:08.644Z,13.27
2022-11-03T12:37:37.498Z,13.22
2022-11-03T12:40:06.609Z,13.22
2022-11-03T12:42:35.233Z,13.23
2022-11-03T12:45:03.740Z,13.21
2022-11-03T12:47:31.934Z,13.22
2022-11-03T12:49:59.999Z,13.18
2022-11-03T12:52:28.220Z,13.16
2022-11-03T12:54:57.310Z,13.14
2022-11-03T12:57:25.388Z,13.16
2022-11-03T12:59:53.557Z,13.17
2022-11-03T13:02:21.735Z,13.18
2022-11-03T13:04:49.961Z,13.21
2022-11-03T13:07:22.715Z,13.24
2022-11-03T13:09:54.968Z,13.25
2022-11-03T13:12:32.300Z,13.27
2022-11-03T13:15:03.409Z,13.30
2022-11-03T13:17:51.872Z,13.29
2022-11-03T13:20:20.109Z,13.29
2022-11-03T13:22:48.289Z,13.31
2022-11-03T13:25:16.618Z,13.33
2022-11-03T13:27:45.143Z,13.28
2022-11-03T13:30:14.407Z,13.20
2022-11-03T13:32:42.625Z,13.19
2022-11-03T13:35:13.925Z,13.14
2022-11-03T13:37:43.451Z,13.10
2022-11-03T13:40:50.312Z,13.02
2022-11-03T13:43:05.611Z,12.92
2022-11-03T13:45:34.476Z,12.81
2022-11-03T13:49:05.253Z,12.71
2022-11-03T13:50:54.068Z,12.60
2022-11-03T13:56:19.292Z,12.43
2022-11-03T14:01:39.282Z,12.26
2022-11-03T14:06:57.977Z,12.10
2022-11-03T14:09:26.572Z,12.04
2022-11-03T14:12:13.546Z,11.96
2022-11-03T14:14:42.718Z,11.88
2022-11-03T14:17:12.529Z,11.80
2022-11-03T14:19:45.067Z,11.70
2022-11-03T14:22:15.570Z,11.60
2022-11-03T14:24:44.513Z,11.50
2022-11-03T14:27:13.160Z,11.41
2022-11-03T14:29:43.674Z,11.32
2022-11-03T14:32:12.667Z,11.23
2022-11-03T14:34:41.027Z,11.14
2022-11-03T14:37:09.439Z,11.06
2022-11-03T14:39:37.743Z,10.99
2022-11-03T14:42:11.159Z,10.92
2022-11-03T14:44:39.835Z,10.85
2022-11-03T14:47:10.821Z,10.79
2022-11-03T14:49:39.302Z,10.72
2022-11-03T14:52:07.729Z,10.66
2022-11-03T14:54:36.834Z,10.61
2022-11-03T14:57:05.908Z,10.56
2022-11-03T14:59:34.644Z,10.51
2022-11-03T15:02:04.096Z,10.44
2022-11-03T15:04:32.535Z,10.37
2022-11-03T15:07:01.230Z,10.29
2022-11-03T15:09:29.870Z,10.22
2022-11-03T15:11:58.208Z,10.14
2022-11-03T15:14:28.970Z,10.07
2022-11-03T15:16:57.467Z,10.00
2022-11-03T15:19:25.934Z,9.95
2022-11-03T15:21:54.112Z,9.87
2022-11-03T15:27:11.145Z,9.79
2022-11-03T15:29:39.430Z,9.75
2022-11-03T15:32:07.786Z,9.72
2022-11-03T15:34:36.152Z,9.68
2022-11-03T15:37:04.725Z,9.64
2022-11-03T15:39:33.285Z,9.57
2022-11-03T15:42:01.388Z,9.49
2022-11-03T15:44:29.833Z,9.39
2022-11-03T15:46:58.104Z,9.30
2022-11-03T15:49:26.751Z,9.23
2022-11-03T15:51:55.229Z,9.15
2022-11-03T15:54:23.457Z,9.06
2022-11-03T15:56:51.977Z,8.99
2022-11-03T15:59:20.422Z,8.94
2022-11-03T16:01:48.802Z,8.85
2022-11-03T16:04:17.817Z,8.84
2022-11-03T16:07:06.746Z,8.80
2022-11-03T16:09:34.315Z,8.76
2022-11-03T16:12:03.179Z,8.75
2022-11-03T16:14:32.078Z,8.74
2022-11-03T16:17:00.261Z,8.70
2022-11-03T16:19:28.281Z,8.67
2022-11-03T16:21:56.655Z,8.65
2022-11-03T16:24:33.259Z,8.63
2022-11-03T16:27:04.283Z,8.61
2022-11-03T16:29:32.690Z,8.61
2022-11-03T16:32:01.038Z,8.59
2022-11-03T16:34:29.645Z,8.56
2022-11-03T16:36:57.997Z,8.51
2022-11-03T16:39:26.342Z,8.46
2022-11-03T16:41:55.271Z,8.41
2022-11-03T16:44:24.065Z,8.33
2022-11-03T16:46:52.628Z,8.24
2022-11-03T16:49:21.427Z,8.15
2022-11-03T16:51:49.822Z,8.07
2022-11-03T16:54:18.270Z,8.02
2022-11-03T16:56:49.481Z,7.99
2022-11-03T16:59:23.595Z,7.95
2022-11-03T17:01:52.616Z,7.91
2022-11-03T17:04:21.209Z,7.89
2022-11-03T17:06:49.460Z,7.87
2022-11-03T17:09:17.806Z,7.85
2022-11-03T17:11:46.355Z,7.83
2022-11-03T17:14:14.685Z,7.85
2022-11-03T17:16:45.759Z,7.85
2022-11-03T17:19:15.602Z,7.84
2022-11-03T17:21:43.943Z,7.81
2022-11-03T17:24:13.484Z,7.78
2022-11-03T17:26:53.941Z,7.76
2022-11-03T17:29:27.581Z,7.73
2022-11-03T17:31:55.971Z,7.70
2022-11-03T17:34:25.808Z,7.68
2022-11-03T17:36:54.571Z,7.63
2022-11-03T17:39:29.402Z,7.57
2022-11-03T17:42:21.634Z,7.50
2022-11-03T17:44:51.597Z,7.42
2022-11-03T17:47:20.722Z,7.37
2022-11-03T17:49:49.904Z,7.31
2022-11-03T17:52:27.816Z,7.25
2022-11-03T17:54:58.594Z,7.19
2022-11-03T17:57:27.196Z,7.16
2022-11-03T17:59:57.419Z,7.14
2022-11-03T18:02:28.776Z,7.12
2022-11-03T18:05:16.782Z,7.11
2022-11-03T18:07:46.637Z,7.09
2022-11-03T18:10:15.047Z,7.10
2022-11-03T18:13:05.011Z,7.12
2022-11-03T18:15:36.939Z,7.12
2022-11-03T18:18:42.159Z,7.10
2022-11-03T18:21:15.521Z,7.03
2022-11-03T18:23:43.874Z,7.02
2022-11-03T18:26:21.093Z,7.01
2022-11-03T18:28:50.451Z,6.97
2022-11-03T18:31:34.081Z,6.91
2022-11-03T18:34:12.194Z,6.83
2022-11-03T18:36:40.332Z,6.75
2022-11-03T18:39:14.661Z,6.67
2022-11-03T18:41:44.229Z,6.60
2022-11-03T18:44:16.239Z,6.53
2022-11-03T18:46:44.283Z,6.47
2022-11-03T18:49:12.495Z,6.42
2022-11-03T18:51:47.885Z,6.39
2022-11-03T18:56:54.066Z,6.35
2022-11-03T18:59:28.720Z,6.36
2022-11-03T19:01:56.758Z,6.37
2022-11-03T19:04:25.041Z,6.37
2022-11-03T19:06:53.061Z,6.36
2022-11-03T19:09:24.619Z,6.36
2022-11-03T19:11:57.500Z,6.34
2022-11-03T19:14:31.918Z,6.35
2022-11-03T19:19:53.631Z,6.35
2022-11-03T19:22:23.613Z,6.32
2022-11-03T19:24:52.348Z,6.28
2022-11-03T19:27:22.502Z,6.24
2022-11-03T19:29:50.319Z,6.17
2022-11-03T19:32:31.601Z,6.14
2022-11-03T19:35:06.153Z,6.06
2022-11-03T19:37:36.005Z,5.98
2022-11-03T19:40:11.851Z,5.90
2022-11-03T19:42:40.114Z,5.82
2022-11-03T19:45:14.695Z,5.75
2022-11-03T19:48:10.714Z,5.71
2022-11-03T19:50:36.912Z,5.69
2022-11-03T19:53:07.262Z,5.65
2022-11-03T19:55:38.708Z,5.62
2022-11-03T19:58:20.419Z,5.60
2022-11-03T20:00:50.011Z,5.61
2022-11-03T20:03:18.384Z,5.60
2022-11-03T20:05:49.476Z,5.61
2022-11-03T20:08:20.346Z,5.61
2022-11-03T20:10:48.931Z,5.61
2022-11-03T20:13:19.671Z,5.63
2022-11-03T20:15:47.694Z,5.61
2022-11-03T20:18:16.021Z,5.59
2022-11-03T20:20:48.224Z,5.57
2022-11-03T20:23:36.635Z,5.56
2022-11-03T20:26:06.485Z,5.53
2022-11-03T20:28:37.364Z,5.51
2022-11-03T20:31:07.259Z,5.46
2022-11-03T20:33:36.205Z,5.39
2022-11-03T20:36:04.783Z,5.34
2022-11-03T20:38:33.969Z,5.29
2022-11-03T20:41:07.082Z,5.23
2022-11-03T20:43:40.281Z,5.17
2022-11-03T20:46:23.143Z,5.09
2022-11-03T20:48:51.384Z,5.00
2022-11-03T20:51:21.345Z,4.95
2022-11-03T20:53:49.397Z,4.91
2022-11-03T20:56:21.794Z,4.89
2022-11-03T20:58:50.307Z,4.89
2022-11-03T21:01:24.442Z,4.91
2022-11-03T21:03:59.360Z,4.91
2022-11-03T21:06:30.323Z,4.93
2022-11-03T21:08:59.103Z,4.96
2022-11-03T21:11:30.003Z,4.99
2022-11-03T21:14:15.069Z,4.98
2022-11-03T21:17:01.747Z,4.96
2022-11-03T21:19:41.215Z,4.96
2022-11-03T21:22:50.884Z,4.97
2022-11-03T21:25:06.628Z,4.95
2022-11-03T21:27:36.540Z,4.97
2022-11-03T21:30:08.059Z,4.98
2022-11-03T21:32:37.882Z,5.00
2022-11-03T21:35:06.782Z,5.04
2022-11-03T21:37:34.901Z,5.06
2022-11-03T21:40:02.925Z,5.09
2022-11-03T21:42:49.644Z,5.11
2022-11-03T21:45:18.813Z,5.09
2022-11-03T21:48:10.049Z,5.08
2022-11-03T21:50:41.370Z,5.04
2022-11-03T21:53:09.972Z,5.01
2022-11-03T21:55:38.511Z,4.97
2022-11-03T21:58:06.580Z,4.91
2022-11-03T22:00:34.613Z,4.82
2022-11-03T22:03:02.445Z,4.74
2022-11-03T22:05:30.326Z,4.67
2022-11-03T22:07:58.201Z,4.61
2022-11-03T22:10:26.138Z,4.59
2022-11-03T22:12:54.034Z,4.56
2022-11-03T22:15:40.613Z,4.53
2022-11-03T22:18:08.732Z,4.46
2022-11-03T22:20:55.842Z,4.45
2022-11-03T22:23:42.444Z,4.43
2022-11-03T22:26:31.470Z,4.40
2022-11-03T22:29:28.661Z,4.40
2022-11-03T22:31:56.520Z,4.38
2022-11-03T22:34:42.923Z,4.37
2022-11-03T22:37:10.816Z,4.42
2022-11-03T22:39:57.246Z,4.45
2022-11-03T22:45:30.253Z,4.51
2022-11-03T22:47:58.170Z,4.54
2022-11-03T22:50:26.172Z,4.61
2022-11-03T22:52:54.091Z,4.68
2022-11-03T22:55:22.384Z,4.73
2022-11-03T22:57:50.215Z,4.71
2022-11-03T23:00:20.513Z,4.68
2022-11-03T23:02:48.463Z,4.67
2022-11-03T23:05:16.333Z,4.64
2022-11-03T23:07:44.188Z,4.61
2022-11-03T23:10:12.021Z,4.53
2022-11-03T23:12:40.022Z,4.46
2022-11-03T23:15:27.051Z,4.43
2022-11-03T23:18:13.429Z,4.41
2022-11-03T23:21:00.077Z,4.42
2022-11-03T23:23:46.612Z,4.41
2022-11-03T23:26:15.257Z,4.35
2022-11-03T23:28:44.409Z,4.28
2022-11-03T23:31:12.924Z,4.24
2022-11-03T23:33:41.206Z,4.18
2022-11-03T23:36:17.501Z,4.15
2022-11-03T23:38:45.439Z,4.10
2022-11-03T23:41:16.435Z,4.10
2022-11-03T23:43:45.984Z,4.13
2022-11-03T23:46:45.092Z,4.13
2022-11-03T23:49:14.081Z,4.11
2022-11-03T23:51:42.277Z,4.15
2022-11-03T23:54:11.937Z,4.21
2022-11-03T23:57:00.777Z,4.26
2022-11-03T23:59:30.778Z,4.34
